createdAt,value
2023-02-11T00:00:54.465Z,100797.00
2023-02-11T00:03:21.171Z,100799.28
2023-02-11T00:05:59.830Z,100802.91
2023-02-11T00:08:26.745Z,100800.16
2023-02-11T00:10:57.968Z,100730.63
2023-02-11T00:13:25.238Z,100775.19
2023-02-11T00:15:52.054Z,100722.16
2023-02-11T00:18:18.853Z,100794.44
2023-02-11T00:20:45.494Z,100772.06
2023-02-11T00:23:12.180Z,100728.41
2023-02-11T00:25:43.861Z,100717.31
2023-02-11T00:28:11.460Z,100778.41
2023-02-11T00:30:41.105Z,100809.53
2023-02-11T00:33:08.518Z,100800.63
2023-02-11T00:35:38.214Z,100793.75
2023-02-11T00:38:07.483Z,100800.06
2023-02-11T00:40:34.048Z,100710.69
2023-02-11T00:43:00.681Z,100784.78
2023-02-11T00:45:28.705Z,100772.13
2023-02-11T00:47:55.287Z,100792.44
2023-02-11T00:50:22.284Z,100790.16
2023-02-11T00:52:48.941Z,100798.06
2023-02-11T00:55:16.103Z,100761.00
2023-02-11T00:57:42.937Z,100799.31
2023-02-11T01:00:12.676Z,100790.00
2023-02-11T01:02:39.536Z,100776.41
2023-02-11T01:05:06.717Z,100800.63
2023-02-11T01:07:33.401Z,100789.28
2023-02-11T01:10:00.012Z,100716.69
2023-02-11T01:12:29.620Z,100796.06
2023-02-11T01:14:57.929Z,100797.72
2023-02-11T01:17:24.604Z,100732.75
2023-02-11T01:19:51.353Z,100712.25
2023-02-11T01:22:18.030Z,100784.38
2023-02-11T01:24:46.588Z,100789.16
2023-02-11T01:27:13.281Z,100772.06
2023-02-11T01:29:39.971Z,100754.28
2023-02-11T01:32:06.616Z,100785.56
2023-02-11T01:34:33.170Z,100744.88
2023-02-11T01:37:00.369Z,100771.03
2023-02-11T01:39:29.162Z,100752.16
2023-02-11T01:41:55.763Z,100697.28
2023-02-11T01:44:32.496Z,100777.91
2023-02-11T01:46:59.575Z,100749.56
2023-02-11T01:49:33.082Z,100774.31
2023-02-11T01:52:19.593Z,100737.84
2023-02-11T01:55:10.960Z,100761.03
2023-02-11T01:57:41.608Z,100731.94
2023-02-11T02:00:14.110Z,100756.00
2023-02-11T02:02:58.514Z,100723.44
2023-02-11T02:05:37.289Z,100738.81
2023-02-11T02:08:11.461Z,100649.47
2023-02-11T02:10:41.748Z,100706.53
2023-02-11T02:13:08.798Z,100732.38
2023-02-11T02:15:41.238Z,100736.34
2023-02-11T02:18:32.508Z,100732.00
2023-02-11T02:21:34.478Z,100737.00
2023-02-11T02:24:12.541Z,100737.28
2023-02-11T02:27:01.883Z,100738.34
2023-02-11T02:30:09.812Z,100731.19
2023-02-11T02:33:22.601Z,100732.91
2023-02-11T02:36:07.864Z,100734.53
2023-02-11T02:38:50.884Z,100719.59
2023-02-11T02:41:21.329Z,100690.13
2023-02-11T02:43:49.768Z,100733.78
2023-02-11T02:46:19.091Z,100735.50
2023-02-11T02:48:46.339Z,100727.13
2023-02-11T02:51:47.220Z,100729.31
2023-02-11T02:54:44.839Z,100717.22
2023-02-11T02:57:17.405Z,100711.31
2023-02-11T03:00:14.848Z,100714.31
2023-02-11T03:02:59.904Z,100702.97
2023-02-11T03:05:41.711Z,100703.06
2023-02-11T03:08:31.686Z,100703.13
2023-02-11T03:11:01.352Z,100657.31
2023-02-11T03:13:33.625Z,100649.44
2023-02-11T03:16:08.751Z,100622.84
2023-02-11T03:18:37.123Z,100677.78
2023-02-11T03:21:07.349Z,100639.84
2023-02-11T03:23:57.664Z,100706.00
2023-02-11T03:26:37.952Z,100698.88
2023-02-11T03:29:21.560Z,100610.28
2023-02-11T03:32:12.294Z,100686.53
2023-02-11T03:34:55.496Z,100610.28
2023-02-11T03:37:30.825Z,100681.59
2023-02-11T03:40:02.310Z,100691.97
2023-02-11T03:42:36.480Z,100684.94
2023-02-11T03:45:09.840Z,100685.84
2023-02-11T03:47:40.166Z,100667.03
2023-02-11T03:50:09.033Z,100681.22
2023-02-11T03:52:37.862Z,100680.28
2023-02-11T03:55:19.520Z,100679.38
2023-02-11T03:57:47.485Z,100685.91
2023-02-11T04:00:15.133Z,100690.78
2023-02-11T04:02:43.275Z,100693.31
2023-02-11T04:05:12.579Z,100659.13
2023-02-11T04:07:39.247Z,100694.53
2023-02-11T04:10:06.543Z,100684.41
2023-02-11T04:12:33.254Z,100654.41
2023-02-11T04:14:59.875Z,100675.75
2023-02-11T04:17:26.545Z,100671.41
2023-02-11T04:19:53.075Z,100651.88
2023-02-11T04:22:19.723Z,100602.94
2023-02-11T04:24:46.355Z,100669.13
2023-02-11T04:27:13.059Z,100650.56
2023-02-11T04:29:39.689Z,100663.22
2023-02-11T04:32:06.315Z,100665.06
2023-02-11T04:34:33.353Z,100632.47
2023-02-11T04:36:59.977Z,100657.41
2023-02-11T04:39:26.582Z,100595.88
2023-02-11T04:41:53.220Z,100664.50
2023-02-11T04:44:19.893Z,100661.19
2023-02-11T04:46:46.863Z,100631.13
2023-02-11T04:49:15.092Z,100655.03
2023-02-11T04:51:42.433Z,100623.53
2023-02-11T04:54:09.001Z,100652.63
2023-02-11T04:56:35.608Z,100555.59
2023-02-11T04:59:02.536Z,100570.16
2023-02-11T05:01:29.234Z,100622.66
2023-02-11T05:03:56.583Z,100647.38
2023-02-11T05:06:23.319Z,100568.53
2023-02-11T05:08:50.101Z,100651.78
2023-02-11T05:11:19.606Z,100601.56
2023-02-11T05:13:47.230Z,100624.94
2023-02-11T05:16:16.341Z,100627.19
2023-02-11T05:18:44.233Z,100624.50
2023-02-11T05:21:14.917Z,100635.84
2023-02-11T05:23:42.220Z,100579.03
2023-02-11T05:26:10.036Z,100641.00
2023-02-11T05:28:36.808Z,100583.78
2023-02-11T05:31:03.733Z,100566.63
2023-02-11T05:33:30.630Z,100635.19
2023-02-11T05:36:06.761Z,100585.38
2023-02-11T05:38:33.957Z,100581.00
2023-02-11T05:41:01.100Z,100633.38
2023-02-11T05:43:27.896Z,100630.72
2023-02-11T05:45:54.886Z,100594.56
2023-02-11T05:48:21.613Z,100582.69
2023-02-11T05:50:48.206Z,100626.38
2023-02-11T05:53:14.868Z,100606.56
2023-02-11T05:55:41.603Z,100532.69
2023-02-11T05:58:08.418Z,100623.78
2023-02-11T06:00:35.166Z,100608.25
2023-02-11T06:03:01.824Z,100616.00
2023-02-11T06:05:28.362Z,100591.19
2023-02-11T06:07:55.003Z,100563.66
2023-02-11T06:10:22.072Z,100610.47
2023-02-11T06:12:48.825Z,100603.91
2023-02-11T06:15:15.498Z,100599.47
2023-02-11T06:17:42.078Z,100556.78
2023-02-11T06:20:10.525Z,100613.44
2023-02-11T06:22:37.589Z,100616.13
2023-02-11T06:25:05.752Z,100591.31
2023-02-11T06:27:32.528Z,100540.00
2023-02-11T06:29:59.142Z,100611.09
2023-02-11T06:32:45.492Z,100555.09
2023-02-11T06:35:14.400Z,100597.19
2023-02-11T06:37:42.177Z,100609.00
2023-02-11T06:40:10.416Z,100518.03
2023-02-11T06:42:39.147Z,100598.66
2023-02-11T06:45:09.072Z,100596.72
2023-02-11T06:47:35.972Z,100544.16
2023-02-11T06:50:03.026Z,100557.66
2023-02-11T06:52:29.683Z,100552.66
2023-02-11T06:54:56.357Z,100577.28
2023-02-11T06:57:22.912Z,100600.19
2023-02-11T06:59:49.483Z,100588.09
2023-02-11T07:02:16.763Z,100599.03
2023-02-11T07:04:44.120Z,100573.94
2023-02-11T07:07:10.732Z,100522.97
2023-02-11T07:09:37.390Z,100586.78
2023-02-11T07:12:04.303Z,100598.72
2023-02-11T07:14:30.921Z,100581.44
2023-02-11T07:16:58.009Z,100534.22
2023-02-11T07:19:24.617Z,100583.25
2023-02-11T07:21:51.250Z,100562.22
2023-02-11T07:24:17.834Z,100593.03
2023-02-11T07:26:44.798Z,100525.16
2023-02-11T07:29:11.649Z,100487.75
2023-02-11T07:31:40.461Z,100581.44
2023-02-11T07:34:07.086Z,100566.63
2023-02-11T07:36:33.709Z,100595.72
2023-02-11T07:39:00.316Z,100532.69
2023-02-11T07:41:27.878Z,100581.91
2023-02-11T07:43:54.650Z,100578.31
2023-02-11T07:46:25.198Z,100585.47
2023-02-11T07:48:52.760Z,100582.38
2023-02-11T07:51:30.893Z,100589.41
2023-02-11T07:53:59.837Z,100601.06
2023-02-11T07:56:27.401Z,100593.84
2023-02-11T07:58:54.867Z,100590.25
2023-02-11T08:01:25.345Z,100589.16
2023-02-11T08:03:52.673Z,100587.34
2023-02-11T08:06:21.126Z,100595.34
2023-02-11T08:08:48.115Z,100596.63
2023-02-11T08:11:25.944Z,100583.22
2023-02-11T08:13:53.654Z,100597.88
2023-02-11T08:16:29.536Z,100600.00
2023-02-11T08:18:58.087Z,100602.50
2023-02-11T08:21:25.860Z,100606.50
2023-02-11T08:23:53.489Z,100546.19
2023-02-11T08:26:31.734Z,100606.16
2023-02-11T08:28:58.664Z,100594.50
2023-02-11T08:31:28.611Z,100563.22
2023-02-11T08:33:57.889Z,100613.97
2023-02-11T08:36:27.173Z,100606.56
2023-02-11T08:39:18.124Z,100604.31
2023-02-11T08:41:51.103Z,100549.56
2023-02-11T08:44:19.451Z,100592.03
2023-02-11T08:46:46.806Z,100580.53
2023-02-11T08:49:14.529Z,100598.41
2023-02-11T08:51:41.500Z,100611.47
2023-02-11T08:54:09.794Z,100601.78
2023-02-11T08:56:37.836Z,100609.84
2023-02-11T08:59:05.270Z,100566.28
2023-02-11T09:01:32.468Z,100589.19
2023-02-11T09:03:59.905Z,100620.19
2023-02-11T09:06:27.880Z,100607.66
2023-02-11T09:08:57.128Z,100589.13
2023-02-11T09:11:30.399Z,100604.69
2023-02-11T09:13:57.329Z,100584.03
2023-02-11T09:16:26.855Z,100598.56
2023-02-11T09:18:54.200Z,100602.69
2023-02-11T09:21:20.824Z,100578.19
2023-02-11T09:23:48.051Z,100609.41
2023-02-11T09:26:18.572Z,100585.47
2023-02-11T09:28:45.717Z,100601.00
2023-02-11T09:31:15.777Z,100582.03
2023-02-11T09:33:47.812Z,100605.41
2023-02-11T09:36:17.512Z,100603.47
2023-02-11T09:38:44.510Z,100602.00
2023-02-11T09:41:22.977Z,100608.16
2023-02-11T09:43:53.400Z,100601.31
2023-02-11T09:46:21.919Z,100600.09
2023-02-11T09:48:50.504Z,100605.94
2023-02-11T09:51:29.724Z,100608.78
2023-02-11T09:54:02.636Z,100605.56
2023-02-11T09:56:31.163Z,100592.69
2023-02-11T09:58:58.021Z,100598.88
2023-02-11T10:01:33.296Z,100606.66
2023-02-11T10:04:15.280Z,100604.56
2023-02-11T10:06:47.036Z,100577.06
2023-02-11T10:09:47.452Z,100598.69
2023-02-11T10:12:35.344Z,100594.34
2023-02-11T10:15:14.093Z,100597.81
2023-02-11T10:18:07.720Z,100598.22
2023-02-11T10:20:47.532Z,100572.78
2023-02-11T10:23:21.141Z,100595.13
2023-02-11T10:25:54.416Z,100540.84
2023-02-11T10:28:24.957Z,100532.31
2023-02-11T10:31:00.933Z,100581.91
2023-02-11T10:33:42.087Z,100585.66
2023-02-11T10:36:11.960Z,100538.84
2023-02-11T10:38:38.753Z,100505.28
2023-02-11T10:41:06.692Z,100570.66
2023-02-11T10:43:34.605Z,100533.56
2023-02-11T10:46:04.750Z,100491.66
2023-02-11T10:48:52.775Z,100578.66
2023-02-11T10:51:33.617Z,100547.78
2023-02-11T10:54:19.290Z,100578.84
2023-02-11T10:56:52.108Z,100568.84
2023-02-11T10:59:22.137Z,100579.69
2023-02-11T11:01:52.867Z,100562.97
2023-02-11T11:04:45.344Z,100534.22
2023-02-11T11:07:14.372Z,100576.53
2023-02-11T11:10:25.161Z,100571.34
2023-02-11T11:12:51.830Z,100544.50
2023-02-11T11:15:26.889Z,100574.00
2023-02-11T11:18:22.025Z,100568.97
2023-02-11T11:20:59.598Z,100533.72
2023-02-11T11:23:28.262Z,100564.97
2023-02-11T11:26:07.275Z,100517.25
2023-02-11T11:28:41.876Z,100509.03
2023-02-11T11:31:20.377Z,100546.38
2023-02-11T11:33:48.152Z,100472.59
2023-02-11T11:36:22.811Z,100511.63
2023-02-11T11:38:54.356Z,100490.63
2023-02-11T11:41:33.214Z,100530.84
2023-02-11T11:44:17.430Z,100481.34
2023-02-11T11:46:46.267Z,100458.72
2023-02-11T11:49:29.922Z,100528.38
2023-02-11T11:52:11.865Z,100533.63
2023-02-11T11:54:39.288Z,100494.50
2023-02-11T11:57:15.133Z,100524.28
2023-02-11T11:59:41.945Z,100474.00
2023-02-11T12:02:19.538Z,100513.28
2023-02-11T12:04:55.360Z,100504.25
2023-02-11T12:07:43.965Z,100506.53
2023-02-11T12:10:19.754Z,100479.31
2023-02-11T12:12:55.688Z,100508.91
2023-02-11T12:15:40.097Z,100462.66
2023-02-11T12:18:16.606Z,100435.59
2023-02-11T12:21:06.055Z,100467.31
2023-02-11T12:23:38.578Z,100498.66
2023-02-11T12:26:22.390Z,100457.00
2023-02-11T12:28:57.970Z,100493.81
2023-02-11T12:31:31.484Z,100466.56
2023-02-11T12:34:12.217Z,100474.03
2023-02-11T12:36:56.103Z,100471.19
2023-02-11T12:39:41.465Z,100459.78
2023-02-11T12:42:45.662Z,100460.97
2023-02-11T12:45:22.689Z,100446.38
2023-02-11T12:48:04.584Z,100449.75
2023-02-11T12:50:44.692Z,100452.50
2023-02-11T12:53:17.374Z,100448.72
2023-02-11T12:55:48.929Z,100441.56
2023-02-11T12:58:25.446Z,100376.66
2023-02-11T13:01:06.060Z,100436.00
2023-02-11T13:03:40.190Z,100369.44
2023-02-11T13:06:12.837Z,100423.34
2023-02-11T13:08:53.005Z,100374.09
2023-02-11T13:11:27.591Z,100410.13
2023-02-11T13:14:17.134Z,100340.78
2023-02-11T13:16:49.874Z,100340.47
2023-02-11T13:19:48.837Z,100393.78
2023-02-11T13:22:28.439Z,100394.09
2023-02-11T13:25:21.382Z,100383.47
2023-02-11T13:27:58.959Z,100389.44
2023-02-11T13:30:34.332Z,100327.69
2023-02-11T13:33:01.018Z,100391.53
2023-02-11T13:36:09.682Z,100381.88
2023-02-11T13:38:37.531Z,100359.59
2023-02-11T13:41:13.444Z,100384.59
2023-02-11T13:43:40.802Z,100383.19
2023-02-11T13:46:11.607Z,100369.78
2023-02-11T13:48:46.255Z,100311.16
2023-02-11T13:51:17.563Z,100335.44
2023-02-11T13:53:51.816Z,100335.47
2023-02-11T13:56:27.672Z,100365.66
2023-02-11T13:58:54.329Z,100312.56
2023-02-11T14:01:42.420Z,100361.09
2023-02-11T14:04:41.534Z,100323.72
2023-02-11T14:07:42.152Z,100353.38
2023-02-11T14:10:42.845Z,100346.63
2023-02-11T14:13:32.822Z,100337.50
2023-02-11T14:16:08.779Z,100339.03
2023-02-11T14:18:44.241Z,100337.41
2023-02-11T14:21:13.401Z,100327.13
2023-02-11T14:23:40.796Z,100336.34
2023-02-11T14:26:20.134Z,100334.78
2023-02-11T14:28:58.826Z,100291.22
2023-02-11T14:31:33.920Z,100278.31
2023-02-11T14:34:42.448Z,100339.47
2023-02-11T14:37:18.215Z,100339.13
2023-02-11T14:40:15.949Z,100333.19
2023-02-11T14:42:42.700Z,100327.06
2023-02-11T14:45:15.079Z,100294.63
2023-02-11T14:47:52.664Z,100274.63
2023-02-11T14:50:43.173Z,100261.59
2023-02-11T14:53:19.838Z,100284.78
2023-02-11T14:55:50.804Z,100306.94
2023-02-11T14:58:26.993Z,100316.28
2023-02-11T15:01:01.115Z,100266.22
2023-02-11T15:03:36.554Z,100289.53
2023-02-11T15:06:07.852Z,100318.50
2023-02-11T15:08:38.274Z,100311.78
2023-02-11T15:11:12.044Z,100313.41
2023-02-11T15:13:39.117Z,100305.19
2023-02-11T15:16:09.863Z,100304.53
2023-02-11T15:18:46.362Z,100265.78
2023-02-11T15:21:19.870Z,100298.44
2023-02-11T15:23:55.551Z,100300.53
2023-02-11T15:26:22.696Z,100292.78
2023-02-11T15:28:51.992Z,100281.63
2023-02-11T15:31:23.213Z,100293.31
2023-02-11T15:33:51.022Z,100296.47
2023-02-11T15:36:19.028Z,100297.31
2023-02-11T15:38:45.860Z,100297.09
2023-02-11T15:41:37.213Z,100298.13
2023-02-11T15:44:04.349Z,100305.06
2023-02-11T15:46:36.677Z,100297.31
2023-02-11T15:49:03.939Z,100291.88
2023-02-11T15:51:34.519Z,100275.91
2023-02-11T15:54:16.358Z,100300.03
2023-02-11T15:56:45.399Z,100290.59
2023-02-11T15:59:35.979Z,100292.06
2023-02-11T16:02:27.642Z,100301.94
2023-02-11T16:04:57.338Z,100271.91
2023-02-11T16:07:52.091Z,100296.44
2023-02-11T16:10:20.979Z,100298.66
2023-02-11T16:12:57.347Z,100305.94
2023-02-11T16:15:42.519Z,100308.03
2023-02-11T16:18:33.969Z,100306.44
2023-02-11T16:21:05.322Z,100311.78
2023-02-11T16:23:37.035Z,100285.13
2023-02-11T16:26:26.684Z,100311.97
2023-02-11T16:28:53.800Z,100298.22
2023-02-11T16:31:20.590Z,100283.56
2023-02-11T16:33:47.233Z,100296.72
2023-02-11T16:36:17.170Z,100306.75
2023-02-11T16:38:43.882Z,100297.97
2023-02-11T16:41:14.597Z,100288.03
2023-02-11T16:43:41.308Z,100318.78
2023-02-11T16:46:09.216Z,100311.47
2023-02-11T16:48:36.036Z,100322.47
2023-02-11T16:51:03.417Z,100304.75
2023-02-11T16:53:30.027Z,100266.22
2023-02-11T16:55:56.563Z,100325.38
2023-02-11T16:58:23.262Z,100306.31
2023-02-11T17:00:50.497Z,100306.47
2023-02-11T17:03:22.863Z,100329.22
2023-02-11T17:05:55.690Z,100306.22
2023-02-11T17:08:22.809Z,100256.81
2023-02-11T17:10:49.738Z,100332.50
2023-02-11T17:13:16.718Z,100313.41
2023-02-11T17:15:43.266Z,100314.47
2023-02-11T17:18:13.658Z,100345.38
2023-02-11T17:20:41.016Z,100323.28
2023-02-11T17:23:07.853Z,100313.63
2023-02-11T17:25:34.468Z,100335.78
2023-02-11T17:28:01.083Z,100341.16
2023-02-11T17:30:27.830Z,100334.13
2023-02-11T17:32:54.740Z,100325.19
2023-02-11T17:35:21.436Z,100341.91
2023-02-11T17:37:48.105Z,100336.28
2023-02-11T17:40:15.216Z,100352.78
2023-02-11T17:42:42.275Z,100341.75
2023-02-11T17:45:10.075Z,100348.25
2023-02-11T17:47:36.697Z,100348.19
2023-02-11T17:50:03.682Z,100306.22
2023-02-11T17:52:30.394Z,100321.75
2023-02-11T17:54:58.052Z,100345.31
2023-02-11T17:57:24.668Z,100338.84
2023-02-11T17:59:51.487Z,100348.59
2023-02-11T18:02:18.023Z,100330.28
2023-02-11T18:04:44.743Z,100347.28
2023-02-11T18:07:11.360Z,100288.00
2023-02-11T18:09:40.088Z,100220.16
2023-02-11T18:12:07.619Z,100294.97
2023-02-11T18:14:34.282Z,100303.44
2023-02-11T18:17:00.900Z,100329.28
2023-02-11T18:19:30.498Z,100341.66
2023-02-11T18:22:00.788Z,100343.22
2023-02-11T18:24:27.715Z,100338.97
2023-02-11T18:26:54.256Z,100271.19
2023-02-11T18:29:20.973Z,100325.75
2023-02-11T18:31:47.632Z,100339.94
2023-02-11T18:34:15.765Z,100295.34
2023-02-11T18:36:42.593Z,100301.16
2023-02-11T18:39:09.384Z,100281.84
2023-02-11T18:41:36.009Z,100243.63
2023-02-11T18:44:04.579Z,100311.81
2023-02-11T18:46:31.448Z,100319.53
2023-02-11T18:48:58.316Z,100352.16
2023-02-11T18:51:25.433Z,100349.72
2023-02-11T18:53:52.426Z,100344.88
2023-02-11T18:56:21.754Z,100356.34
2023-02-11T18:58:49.654Z,100286.38
2023-02-11T19:01:20.490Z,100369.25
2023-02-11T19:03:48.257Z,100309.34
2023-02-11T19:06:20.934Z,100337.63
2023-02-11T19:08:47.998Z,100372.00
2023-02-11T19:11:17.252Z,100355.25
2023-02-11T19:13:44.239Z,100341.50
2023-02-11T19:16:12.433Z,100381.97
2023-02-11T19:18:39.106Z,100345.09
2023-02-11T19:21:10.276Z,100282.69
2023-02-11T19:23:37.888Z,100378.59
2023-02-11T19:26:06.291Z,100362.00
2023-02-11T19:28:35.234Z,100332.69
2023-02-11T19:31:06.625Z,100309.28
2023-02-11T19:33:33.412Z,100363.41
2023-02-11T19:36:05.048Z,100334.03
2023-02-11T19:38:31.701Z,100365.72
2023-02-11T19:40:58.464Z,100323.69
2023-02-11T19:43:25.767Z,100370.00
2023-02-11T19:45:57.240Z,100372.66
2023-02-11T19:48:25.191Z,100376.16
2023-02-11T19:50:51.821Z,100380.53
2023-02-11T19:53:18.577Z,100335.63
2023-02-11T19:55:45.304Z,100304.25
2023-02-11T19:58:12.076Z,100371.25
2023-02-11T20:00:39.258Z,100312.22
2023-02-11T20:03:06.145Z,100350.59
2023-02-11T20:05:32.891Z,100363.78
2023-02-11T20:07:59.503Z,100365.59
2023-02-11T20:10:26.179Z,100351.56
2023-02-11T20:12:52.852Z,100363.13
2023-02-11T20:15:19.428Z,100376.41
2023-02-11T20:17:46.084Z,100289.88
2023-02-11T20:20:12.874Z,100369.69
2023-02-11T20:22:39.558Z,100354.44
2023-02-11T20:25:06.542Z,100338.59
2023-02-11T20:27:33.347Z,100360.34
2023-02-11T20:29:59.921Z,100264.22
2023-02-11T20:32:26.688Z,100286.56
2023-02-11T20:34:53.358Z,100313.56
2023-02-11T20:37:19.949Z,100288.97
2023-02-11T20:39:46.526Z,100352.16
2023-02-11T20:42:14.249Z,100362.03
2023-02-11T20:44:41.092Z,100328.94
2023-02-11T20:47:07.688Z,100299.78
2023-02-11T20:49:34.228Z,100300.19
2023-02-11T20:52:00.835Z,100293.94
2023-02-11T20:54:27.625Z,100303.09
2023-02-11T20:56:55.891Z,100334.78
2023-02-11T20:59:22.811Z,100305.78
2023-02-11T21:01:55.685Z,100289.16
2023-02-11T21:04:30.342Z,100316.00
2023-02-11T21:07:00.200Z,100349.38
2023-02-11T21:09:30.201Z,100354.03
2023-02-11T21:11:57.204Z,100351.56
2023-02-11T21:14:25.179Z,100306.03
2023-02-11T21:16:52.478Z,100328.97
2023-02-11T21:19:19.139Z,100266.25
2023-02-11T21:21:45.879Z,100358.03
2023-02-11T21:24:13.044Z,100340.69
2023-02-11T21:26:39.803Z,100355.31
2023-02-11T21:29:07.844Z,100326.13
2023-02-11T21:31:36.031Z,100313.84
2023-02-11T21:34:03.429Z,100346.03
2023-02-11T21:36:30.406Z,100304.69
2023-02-11T21:38:57.185Z,100351.25
2023-02-11T21:41:24.745Z,100354.03
2023-02-11T21:43:51.884Z,100359.34
2023-02-11T21:46:20.406Z,100357.16
2023-02-11T21:48:47.829Z,100259.69
2023-02-11T21:51:20.272Z,100320.34
2023-02-11T21:53:47.304Z,100343.53
2023-02-11T21:56:17.333Z,100347.66
2023-02-11T21:58:44.838Z,100343.69
2023-02-11T22:01:14.564Z,100361.78
2023-02-11T22:03:41.690Z,100378.13
2023-02-11T22:06:14.261Z,100381.72
2023-02-11T22:08:41.407Z,100342.94
2023-02-11T22:11:11.095Z,100335.78
2023-02-11T22:13:38.969Z,100378.53
2023-02-11T22:16:09.917Z,100374.88
2023-02-11T22:18:37.156Z,100337.66
2023-02-11T22:21:12.696Z,100381.84
2023-02-11T22:23:40.162Z,100389.56
2023-02-11T22:26:15.892Z,100385.41
2023-02-11T22:28:42.982Z,100353.94
2023-02-11T22:31:21.573Z,100347.59
2023-02-11T22:33:48.518Z,100382.78
2023-02-11T22:36:24.287Z,100304.31
2023-02-11T22:38:51.238Z,100386.28
2023-02-11T22:41:19.257Z,100334.69
2023-02-11T22:43:46.135Z,100374.88
2023-02-11T22:46:15.486Z,100309.28
2023-02-11T22:48:42.882Z,100339.50
2023-02-11T22:51:13.213Z,100306.88
2023-02-11T22:53:40.254Z,100321.84
2023-02-11T22:56:09.873Z,100342.31
2023-02-11T22:58:36.771Z,100317.50
2023-02-11T23:01:04.863Z,100372.13
2023-02-11T23:03:31.913Z,100371.75
2023-02-11T23:05:59.390Z,100363.38
2023-02-11T23:08:27.223Z,100367.16
2023-02-11T23:10:53.926Z,100355.97
2023-02-11T23:13:20.874Z,100364.00
2023-02-11T23:15:47.984Z,100279.56
2023-02-11T23:18:15.432Z,100367.59
2023-02-11T23:20:43.537Z,100375.09
2023-02-11T23:23:10.292Z,100373.97
2023-02-11T23:25:43.463Z,100365.38
2023-02-11T23:28:11.681Z,100346.69
2023-02-11T23:30:38.666Z,100372.13
2023-02-11T23:33:05.374Z,100331.34
2023-02-11T23:35:32.007Z,100277.59
2023-02-11T23:37:58.675Z,100361.22
2023-02-11T23:40:25.229Z,100313.75
2023-02-11T23:42:51.909Z,100336.53
2023-02-11T23:45:18.701Z,100310.25
2023-02-11T23:47:45.817Z,100322.09
2023-02-11T23:50:12.413Z,100350.56
2023-02-11T23:52:39.059Z,100219.53
2023-02-11T23:55:05.938Z,100254.59
2023-02-11T23:57:33.113Z,100315.00
2023-02-11T23:59:59.829Z,100184.09
